Time;durP1;ratioP1;P1;durP2;ratioP2;P2;SDS_P1;SDS_P2;PMS_P1;PMS_P2;Temp;Humidity;BMP_temperature;BMP_pressure;BME280_temperature;BME280_humidity;BME280_pressure;Samples;Min_cycle;Max_cycle;Signal;HPM_P1;HPM_P2
2023/01/06 00:01:23;;;;;;;1.80;1.25;;;9.70;99.90;;;;;;5032099;28;20213;-69
2023/01/06 00:03:51;;;;;;;1.05;0.95;;;9.80;99.90;;;;;;5031733;28;20197;-69
2023/01/06 00:06:18;;;;;;;2.13;1.35;;;9.80;99.90;;;;;;5031957;28;20253;-68
2023/01/06 00:08:46;;;;;;;1.10;1.00;;;9.80;99.90;;;;;;5031289;28;20700;-68
2023/01/06 00:11:15;;;;;;;1.48;1.10;;;9.80;99.90;;;;;;5031639;28;20220;-68
2023/01/06 00:13:42;;;;;;;1.30;1.05;;;9.80;99.90;;;;;;5031625;28;20209;-67
2023/01/06 00:16:10;;;;;;;1.50;1.20;;;9.80;99.90;;;;;;5031521;28;20225;-69
2023/01/06 00:18:37;;;;;;;1.20;1.10;;;9.80;99.90;;;;;;5031129;28;20201;-69
2023/01/06 00:21:05;;;;;;;1.60;1.50;;;9.80;99.90;;;;;;5031583;28;20210;-69
2023/01/06 00:23:32;;;;;;;1.08;0.98;;;9.80;99.90;;;;;;5031446;28;20202;-69
2023/01/06 00:26:00;;;;;;;1.20;1.10;;;9.80;99.90;;;;;;5031394;28;20228;-69
2023/01/06 00:28:27;;;;;;;1.33;1.08;;;9.80;99.90;;;;;;5030810;28;20583;-69
2023/01/06 00:30:53;;;;;;;1.35;1.00;;;9.80;99.90;;;;;;5031326;28;20210;-70
2023/01/06 00:33:20;;;;;;;1.27;1.17;;;9.80;99.90;;;;;;5031387;28;20600;-69
2023/01/06 00:35:47;;;;;;;1.00;0.93;;;9.80;99.90;;;;;;5031223;28;20237;-69
2023/01/06 00:38:13;;;;;;;1.85;1.10;;;9.80;99.90;;;;;;5030740;28;20236;-69
2023/01/06 00:40:40;;;;;;;2.25;1.67;;;9.70;99.90;;;;;;5030963;28;20201;-69
2023/01/06 00:43:08;;;;;;;1.10;1.00;;;9.70;99.90;;;;;;5031292;28;20221;-69
2023/01/06 00:45:35;;;;;;;1.52;1.38;;;9.70;99.90;;;;;;5030965;28;20823;-69
2023/01/06 00:48:02;;;;;;;1.13;1.02;;;9.60;99.90;;;;;;5030532;28;20293;-69
2023/01/06 00:50:29;;;;;;;1.88;1.40;;;9.60;99.90;;;;;;5030557;28;20569;-69
2023/01/06 00:52:55;;;;;;;1.25;1.15;;;9.50;99.90;;;;;;5030919;28;20212;-69
2023/01/06 00:55:22;;;;;;;1.25;1.10;;;9.50;99.90;;;;;;5031032;28;20209;-70
2023/01/06 00:57:52;;;;;;;1.52;1.30;;;9.40;99.90;;;;;;5030769;28;20233;-69
2023/01/06 01:00:20;;;;;;;2.55;1.60;;;9.30;99.90;;;;;;5030595;28;20232;-69
2023/01/06 01:02:47;;;;;;;1.30;1.20;;;9.30;99.90;;;;;;5030572;28;20581;-69
2023/01/06 01:05:15;;;;;;;2.85;1.20;;;9.20;99.90;;;;;;5031013;28;20212;-69
2023/01/06 01:07:42;;;;;;;1.33;1.17;;;9.20;99.90;;;;;;5030553;28;20194;-69
2023/01/06 01:10:09;;;;;;;1.38;1.25;;;9.20;99.90;;;;;;5030141;28;20288;-69
2023/01/06 01:12:36;;;;;;;1.33;1.17;;;9.10;99.90;;;;;;5030543;28;20723;-69
2023/01/06 01:15:03;;;;;;;1.98;1.25;;;9.10;99.90;;;;;;5030977;28;20206;-69
2023/01/06 01:17:32;;;;;;;2.40;1.20;;;9.10;99.90;;;;;;5030676;28;20240;-69
2023/01/06 01:19:59;;;;;;;1.90;1.20;;;9.10;99.90;;;;;;5029910;28;20213;-69
2023/01/06 01:22:28;;;;;;;1.17;1.08;;;9.00;99.90;;;;;;5030681;28;20607;-69
2023/01/06 01:24:54;;;;;;;3.10;1.40;;;9.00;99.90;;;;;;5030407;28;20201;-69
2023/01/06 01:27:21;;;;;;;1.60;1.50;;;9.00;99.90;;;;;;5030590;28;20218;-69
2023/01/06 01:29:48;;;;;;;2.00;1.20;;;9.00;99.90;;;;;;5029795;28;20571;-69
2023/01/06 01:32:14;;;;;;;1.85;1.15;;;8.90;99.90;;;;;;5030625;28;20673;-69
2023/01/06 01:34:42;;;;;;;1.15;0.90;;;8.90;99.90;;;;;;5030475;28;20612;-69
2023/01/06 01:37:09;;;;;;;1.40;1.10;;;8.90;99.90;;;;;;5029461;28;20234;-69
2023/01/06 01:39:36;;;;;;;1.30;1.10;;;9.00;99.90;;;;;;5029965;28;20224;-69
2023/01/06 01:42:03;;;;;;;1.40;0.90;;;8.90;99.90;;;;;;5028632;28;20537;-68
2023/01/06 01:44:56;;;;;;;1.20;1.10;;;9.00;99.90;;;;;;5030499;28;20665;-69
2023/01/06 01:47:31;;;;;;;2.28;1.42;;;9.00;99.90;;;;;;5030391;28;20225;-69
2023/01/06 01:50:04;;;;;;;2.92;1.40;;;9.00;99.90;;;;;;5030124;28;20205;-69
2023/01/06 01:52:33;;;;;;;1.42;1.15;;;9.00;99.90;;;;;;5030625;28;20206;-69
2023/01/06 01:55:00;;;;;;;1.13;1.02;;;9.00;99.90;;;;;;5030627;28;20209;-69
2023/01/06 01:57:32;;;;;;;1.60;1.30;;;9.00;99.90;;;;;;5031370;28;20233;-69
2023/01/06 02:00:00;;;;;;;1.55;1.20;;;9.00;99.90;;;;;;5031688;28;20209;-69
2023/01/06 02:02:30;;;;;;;1.33;1.20;;;9.00;99.90;;;;;;5034213;28;20665;-69
2023/01/06 02:05:00;;;;;;;2.25;1.33;;;9.00;99.90;;;;;;5033984;28;20276;-69
2023/01/06 02:07:27;;;;;;;1.52;1.20;;;9.00;99.90;;;;;;5034150;28;20221;-69
2023/01/06 02:10:02;;;;;;;1.75;1.33;;;9.00;99.90;;;;;;5033283;28;20209;-69
2023/01/06 02:12:29;;;;;;;2.20;1.98;;;9.00;99.90;;;;;;5034122;28;20208;-69
2023/01/06 02:14:55;;;;;;;1.27;1.10;;;9.10;99.90;;;;;;5033916;28;20213;-69
2023/01/06 02:17:49;;;;;;;1.50;1.30;;;9.10;99.90;;;;;;5033585;28;20236;-69
2023/01/06 02:20:51;;;;;;;1.60;1.40;;;9.10;99.90;;;;;;5033479;28;20202;-69
2023/01/06 02:23:47;;;;;;;1.50;1.10;;;9.10;99.90;;;;;;5011563;28;20201;-69
2023/01/06 02:26:49;;;;;;;1.25;1.15;;;9.10;99.90;;;;;;5033793;28;20221;-69
2023/01/06 02:29:47;;;;;;;1.42;1.25;;;9.10;99.90;;;;;;5033050;28;20676;-69
2023/01/06 02:32:29;;;;;;;1.30;1.13;;;9.10;99.90;;;;;;5033844;28;20228;-69
2023/01/06 02:35:08;;;;;;;2.00;1.58;;;9.10;99.90;;;;;;5033246;28;20206;-69
2023/01/06 02:37:47;;;;;;;2.17;1.40;;;9.10;99.90;;;;;;5033453;28;20577;-69
2023/01/06 02:40:28;;;;;;;1.23;0.95;;;9.10;99.90;;;;;;5033041;28;20205;-69
2023/01/06 02:43:09;;;;;;;1.77;1.30;;;9.10;99.90;;;;;;5033375;28;20209;-70
2023/01/06 02:45:43;;;;;;;2.45;1.33;;;9.10;99.90;;;;;;5033318;28;20221;-69
2023/01/06 02:48:16;;;;;;;1.85;1.23;;;9.10;99.90;;;;;;5033372;28;20205;-69
2023/01/06 02:50:46;;;;;;;1.63;1.42;;;9.10;99.90;;;;;;5033145;28;20297;-69
2023/01/06 02:53:21;;;;;;;1.30;1.20;;;9.10;99.90;;;;;;5033516;28;20206;-69
2023/01/06 02:55:50;;;;;;;2.10;1.20;;;9.10;99.90;;;;;;5033263;28;20291;-69
2023/01/06 02:58:28;;;;;;;1.45;1.20;;;9.10;99.90;;;;;;5032902;28;20229;-69
2023/01/06 03:01:00;;;;;;;1.83;1.52;;;9.10;99.90;;;;;;5033695;28;20201;-69
2023/01/06 03:03:32;;;;;;;1.55;1.33;;;9.20;99.90;;;;;;5033524;28;20556;-69
2023/01/06 03:06:05;;;;;;;1.55;1.20;;;9.10;99.90;;;;;;5032960;28;20226;-69
2023/01/06 03:08:32;;;;;;;2.20;1.20;;;9.10;99.90;;;;;;5032659;28;20201;-69
2023/01/06 03:11:01;;;;;;;1.60;1.50;;;9.10;99.90;;;;;;5032785;28;20213;-69
2023/01/06 03:13:34;;;;;;;3.88;1.42;;;9.10;99.90;;;;;;5033117;28;20205;-69
2023/01/06 03:16:01;;;;;;;2.88;1.60;;;9.10;99.90;;;;;;5033010;28;20222;-69
2023/01/06 03:18:30;;;;;;;1.30;1.20;;;9.10;99.90;;;;;;5032634;28;20240;-69
2023/01/06 03:21:01;;;;;;;1.80;1.42;;;9.10;99.90;;;;;;5032579;28;20205;-69
2023/01/06 03:23:28;;;;;;;1.38;1.20;;;9.10;99.90;;;;;;5032916;28;20573;-69
2023/01/06 03:25:55;;;;;;;1.30;1.20;;;9.10;99.90;;;;;;5032362;28;20225;-69
2023/01/06 03:28:21;;;;;;;1.58;1.30;;;9.10;99.90;;;;;;5032261;28;20205;-69
2023/01/06 03:30:53;;;;;;;2.22;1.13;;;9.10;99.90;;;;;;5032366;28;20212;-69
2023/01/06 03:33:25;;;;;;;1.20;1.10;;;9.00;99.90;;;;;;5032689;28;20296;-69
2023/01/06 03:36:03;;;;;;;1.60;1.45;;;9.00;99.90;;;;;;5032248;28;20221;-69
2023/01/06 03:38:40;;;;;;;1.95;1.40;;;8.90;99.90;;;;;;5031961;28;20248;-69
2023/01/06 03:41:15;;;;;;;1.60;1.40;;;8.80;99.90;;;;;;5032416;28;20197;-69
2023/01/06 03:43:52;;;;;;;1.15;1.05;;;8.70;99.90;;;;;;5032112;28;20209;-69
2023/01/06 03:46:25;;;;;;;1.30;1.20;;;8.60;99.90;;;;;;5032370;28;20225;-69
2023/01/06 03:49:00;;;;;;;1.02;0.93;;;8.50;99.90;;;;;;5031544;28;20297;-69
2023/01/06 03:51:40;;;;;;;2.10;1.63;;;8.40;99.90;;;;;;5032352;28;20596;-69
2023/01/06 03:54:13;;;;;;;1.60;1.30;;;8.40;99.90;;;;;;5032173;28;20205;-69
2023/01/06 03:56:44;;;;;;;1.65;1.40;;;8.40;99.90;;;;;;5032129;28;20592;-69
2023/01/06 03:59:15;;;;;;;1.45;1.33;;;8.40;99.90;;;;;;5031435;28;20233;-69
2023/01/06 04:01:43;;;;;;;2.00;1.52;;;8.40;99.90;;;;;;5031963;28;20202;-69
2023/01/06 04:04:10;;;;;;;1.60;1.25;;;8.40;99.90;;;;;;5031804;28;20209;-69
2023/01/06 04:06:38;;;;;;;1.20;1.10;;;8.40;99.90;;;;;;5031641;28;20232;-69
2023/01/06 04:09:05;;;;;;;1.40;1.30;;;8.30;99.90;;;;;;5031410;28;20673;-69
2023/01/06 04:14:15;;;;;;;1.38;1.23;;;8.40;99.90;;;;;;5031862;28;20192;-68
2023/01/06 04:16:42;;;;;;;1.35;1.17;;;8.50;99.90;;;;;;5031389;28;20221;-69
2023/01/06 04:19:09;;;;;;;1.40;1.30;;;8.50;99.90;;;;;;5031206;28;20221;-68
2023/01/06 04:21:35;;;;;;;1.65;1.40;;;8.50;99.90;;;;;;5031657;28;20929;-68
2023/01/06 04:24:04;;;;;;;1.13;1.02;;;8.50;99.90;;;;;;5030373;28;20655;-68
2023/01/06 04:26:32;;;;;;;2.85;1.58;;;8.50;99.90;;;;;;5031559;28;20591;-69
2023/01/06 04:28:59;;;;;;;1.58;1.48;;;8.50;99.90;;;;;;5030713;28;20210;-68
2023/01/06 04:31:26;;;;;;;1.40;1.30;;;8.50;99.90;;;;;;5031529;28;20697;-69
2023/01/06 04:33:52;;;;;;;2.97;1.38;;;8.50;99.90;;;;;;5031167;28;20293;-68
2023/01/06 04:36:20;;;;;;;1.65;1.30;;;8.50;99.90;;;;;;5031433;28;20228;-69
2023/01/06 04:38:46;;;;;;;2.25;1.60;;;8.50;99.90;;;;;;5030735;28;20304;-69
2023/01/06 04:41:15;;;;;;;1.55;1.35;;;8.40;99.90;;;;;;5031197;28;20202;-69
2023/01/06 04:43:41;;;;;;;1.10;1.00;;;8.40;99.90;;;;;;5031212;28;20684;-68
2023/01/06 04:46:08;;;;;;;1.52;1.42;;;8.30;99.90;;;;;;5031119;28;20232;-69
2023/01/06 04:48:35;;;;;;;2.35;1.60;;;8.30;99.90;;;;;;5030730;28;20535;-68
2023/01/06 04:51:03;;;;;;;1.63;1.25;;;8.30;99.90;;;;;;5031084;28;20625;-69
2023/01/06 04:53:29;;;;;;;1.67;1.58;;;8.30;99.90;;;;;;5031251;28;20213;-68
2023/01/06 04:55:56;;;;;;;1.23;1.10;;;8.20;99.90;;;;;;5030883;28;20225;-69
2023/01/06 04:58:24;;;;;;;1.73;1.30;;;8.20;99.90;;;;;;5030269;28;20232;-69
2023/01/06 05:00:51;;;;;;;1.95;1.48;;;8.20;99.90;;;;;;5030936;28;20580;-69
2023/01/06 05:03:17;;;;;;;3.65;1.70;;;8.20;99.90;;;;;;5030733;28;20321;-69
2023/01/06 05:05:44;;;;;;;1.80;1.70;;;8.30;99.90;;;;;;5030819;28;20234;-69
2023/01/06 05:08:11;;;;;;;2.50;1.75;;;8.30;99.90;;;;;;5030536;28;20201;-68
2023/01/06 05:10:37;;;;;;;1.60;1.50;;;8.20;99.90;;;;;;5030541;28;20723;-68
2023/01/06 05:13:04;;;;;;;2.08;1.60;;;8.30;99.90;;;;;;5030822;28;20205;-68
2023/01/06 05:15:32;;;;;;;1.73;1.40;;;8.30;99.90;;;;;;5030520;28;20241;-69
2023/01/06 05:17:59;;;;;;;1.73;1.30;;;8.30;99.90;;;;;;5030521;28;20221;-68
2023/01/06 05:20:25;;;;;;;2.20;1.42;;;8.30;99.90;;;;;;5030028;28;20611;-69
2023/01/06 05:22:52;;;;;;;1.38;1.27;;;8.30;99.90;;;;;;5030519;28;20205;-69
2023/01/06 05:25:19;;;;;;;2.20;1.63;;;8.40;99.90;;;;;;5030457;28;20552;-69
2023/01/06 05:27:45;;;;;;;2.80;1.75;;;8.40;99.90;;;;;;5030438;28;20206;-69
2023/01/06 05:30:13;;;;;;;1.92;1.60;;;8.40;99.90;;;;;;5030080;28;20201;-69
2023/01/06 05:32:41;;;;;;;1.55;1.38;;;8.40;99.90;;;;;;5030056;28;20208;-69
2023/01/06 05:35:08;;;;;;;1.48;1.23;;;8.40;99.90;;;;;;5030343;28;20206;-69
2023/01/06 05:37:35;;;;;;;1.70;1.45;;;8.40;99.90;;;;;;5030293;28;20202;-69
2023/01/06 05:40:02;;;;;;;2.08;1.67;;;8.40;99.90;;;;;;5029809;28;20249;-69
2023/01/06 05:42:29;;;;;;;1.52;1.40;;;8.40;99.90;;;;;;5029995;28;20580;-68
2023/01/06 05:44:55;;;;;;;1.88;1.65;;;8.40;99.90;;;;;;5030262;28;20209;-68
2023/01/06 05:47:22;;;;;;;2.30;1.35;;;8.40;99.90;;;;;;5030194;28;20221;-69
2023/01/06 05:49:50;;;;;;;1.38;1.20;;;8.40;99.90;;;;;;5029501;28;20201;-69
2023/01/06 05:52:17;;;;;;;1.88;1.73;;;8.40;99.90;;;;;;5030260;28;20686;-69
2023/01/06 05:54:43;;;;;;;1.33;1.20;;;8.40;99.90;;;;;;5030102;28;20632;-69
2023/01/06 05:57:10;;;;;;;2.40;1.40;;;8.40;99.90;;;;;;5030376;28;20229;-69
2023/01/06 05:59:37;;;;;;;1.83;1.40;;;8.40;99.90;;;;;;5029480;28;20593;-69
2023/01/06 06:02:03;;;;;;;2.05;1.60;;;8.40;99.90;;;;;;5030335;28;20212;-69
2023/01/06 06:04:30;;;;;;;2.05;1.50;;;8.50;99.90;;;;;;5030283;28;20208;-68
2023/01/06 06:06:58;;;;;;;1.70;1.60;;;8.40;99.90;;;;;;5029768;28;20218;-68
2023/01/06 06:09:25;;;;;;;1.73;1.50;;;8.40;99.90;;;;;;5029548;28;20571;-69
2023/01/06 06:11:54;;;;;;;3.72;2.20;;;8.40;99.90;;;;;;5029839;28;20209;-69
2023/01/06 06:14:20;;;;;;;2.88;1.50;;;8.40;99.90;;;;;;5030130;28;20209;-69
2023/01/06 06:16:47;;;;;;;1.30;1.20;;;8.40;99.90;;;;;;5029630;28;20229;-69
2023/01/06 06:19:14;;;;;;;1.77;1.30;;;8.40;99.90;;;;;;5029424;28;20226;-69
2023/01/06 06:21:41;;;;;;;1.52;1.33;;;8.40;99.90;;;;;;5030150;28;20209;-69
2023/01/06 06:24:09;;;;;;;1.40;1.30;;;8.40;99.90;;;;;;5029995;28;20205;-69
2023/01/06 06:26:36;;;;;;;1.42;1.30;;;8.40;99.90;;;;;;5029906;28;20229;-69
2023/01/06 06:29:05;;;;;;;1.30;1.10;;;8.30;99.90;;;;;;5029313;28;20202;-69
2023/01/06 06:31:32;;;;;;;2.08;1.80;;;8.30;99.90;;;;;;5032381;28;20198;-69
2023/01/06 06:34:00;;;;;;;1.40;1.30;;;8.20;99.90;;;;;;5029631;28;20206;-69
2023/01/06 06:36:28;;;;;;;1.80;1.70;;;8.20;99.90;;;;;;5029931;28;20226;-69
2023/01/06 06:38:55;;;;;;;1.40;1.30;;;8.20;99.90;;;;;;5029218;28;20217;-69
2023/01/06 06:41:24;;;;;;;2.72;1.35;;;8.20;99.90;;;;;;5029906;28;20209;-69
2023/01/06 06:43:52;;;;;;;1.63;1.48;;;8.20;99.90;;;;;;5029725;28;20214;-69
2023/01/06 06:46:19;;;;;;;1.48;1.20;;;8.20;99.90;;;;;;5030465;28;20229;-69
2023/01/06 06:48:46;;;;;;;1.20;1.10;;;8.20;99.90;;;;;;5032840;28;20194;-68
2023/01/06 06:51:15;;;;;;;1.63;1.20;;;8.20;99.90;;;;;;5033428;28;20567;-69
2023/01/06 06:53:42;;;;;;;1.10;1.00;;;8.30;99.90;;;;;;5033140;28;20197;-69
2023/01/06 06:56:10;;;;;;;2.05;1.40;;;8.30;99.90;;;;;;5033391;28;20229;-69
2023/01/06 06:58:39;;;;;;;1.27;1.17;;;8.30;99.90;;;;;;5032593;28;20267;-69
2023/01/06 07:01:06;;;;;;;2.17;1.27;;;8.40;99.90;;;;;;5033383;28;20205;-69
2023/01/06 07:03:33;;;;;;;1.58;1.30;;;8.40;99.90;;;;;;5032876;28;20681;-69
2023/01/06 07:06:01;;;;;;;1.70;1.27;;;8.40;99.90;;;;;;5032995;28;20233;-69
2023/01/06 07:08:28;;;;;;;1.13;1.02;;;8.40;99.90;;;;;;5032306;28;20278;-69
2023/01/06 07:10:55;;;;;;;1.88;1.30;;;8.50;99.90;;;;;;5032744;28;20206;-68
2023/01/06 07:13:22;;;;;;;2.20;1.30;;;8.50;99.90;;;;;;5032760;28;20209;-69
2023/01/06 07:15:50;;;;;;;1.30;1.13;;;8.50;99.90;;;;;;5032387;28;20222;-68
2023/01/06 07:18:17;;;;;;;1.70;1.50;;;8.50;99.90;;;;;;5032365;28;20198;-68
2023/01/06 07:20:47;;;;;;;1.60;1.30;;;8.60;99.90;;;;;;5032514;28;20229;-69
2023/01/06 07:23:14;;;;;;;1.50;1.13;;;8.60;99.90;;;;;;5032901;28;20673;-68
2023/01/06 07:25:41;;;;;;;3.60;1.50;;;8.60;99.90;;;;;;5032195;28;20222;-69
2023/01/06 07:28:08;;;;;;;1.38;1.27;;;8.60;99.90;;;;;;5032753;28;20623;-69
2023/01/06 07:30:35;;;;;;;1.30;1.20;;;8.60;99.90;;;;;;5012422;28;20569;-68
2023/01/06 07:33:04;;;;;;;1.30;1.00;;;8.60;99.90;;;;;;5012231;28;20206;-69
2023/01/06 07:35:30;;;;;;;1.48;1.05;;;8.70;99.90;;;;;;5012596;28;20226;-69
2023/01/06 07:38:02;;;;;;;1.38;1.20;;;8.70;99.90;;;;;;5012264;28;20202;-69
2023/01/06 07:40:29;;;;;;;1.23;1.00;;;8.70;99.90;;;;;;5011999;28;20222;-68
2023/01/06 07:42:56;;;;;;;1.25;1.02;;;8.80;99.90;;;;;;5011719;28;20206;-68
2023/01/06 07:45:22;;;;;;;1.10;1.00;;;8.90;99.90;;;;;;5012468;28;20202;-69
2023/01/06 07:47:49;;;;;;;1.20;1.10;;;9.00;99.90;;;;;;5012370;28;20203;-68
2023/01/06 07:50:17;;;;;;;1.35;1.20;;;9.00;99.90;;;;;;5011780;28;20198;-69
2023/01/06 07:52:44;;;;;;;1.20;1.10;;;9.10;99.90;;;;;;5012345;28;20215;-69
2023/01/06 07:55:11;;;;;;;1.30;1.20;;;9.20;99.90;;;;;;5012054;28;20696;-68
2023/01/06 07:57:37;;;;;;;1.55;1.35;;;9.20;99.90;;;;;;5012058;28;20213;-69
2023/01/06 08:00:05;;;;;;;1.30;1.10;;;9.30;99.90;;;;;;5011291;28;20218;-69
2023/01/06 08:02:31;;;;;;;1.08;0.98;;;9.30;99.90;;;;;;5012203;28;20206;-69
2023/01/06 08:04:58;;;;;;;1.17;1.00;;;9.40;99.90;;;;;;5012087;28;20227;-69
2023/01/06 08:07:26;;;;;;;0.88;0.80;;;9.50;99.90;;;;;;5011778;28;20230;-69
2023/01/06 08:09:53;;;;;;;1.00;0.90;;;9.50;99.90;;;;;;5011416;28;20206;-69
2023/01/06 08:12:20;;;;;;;0.90;0.80;;;9.60;99.90;;;;;;5011893;28;20206;-69
2023/01/06 08:14:46;;;;;;;1.23;0.95;;;9.60;99.90;;;;;;5011744;28;20202;-69
2023/01/06 08:17:14;;;;;;;1.30;0.90;;;9.70;99.90;;;;;;5011803;28;20406;-71
2023/01/06 08:19:40;;;;;;;0.70;0.70;;;9.80;99.90;;;;;;5010960;28;20223;-68
2023/01/06 08:22:07;;;;;;;1.10;1.00;;;9.80;99.90;;;;;;5011908;28;20583;-68
2023/01/06 08:24:35;;;;;;;1.27;1.05;;;9.80;99.90;;;;;;5011461;28;20222;-68
2023/01/06 08:27:02;;;;;;;1.65;0.85;;;9.90;99.90;;;;;;5011670;28;20285;-68
2023/01/06 08:29:29;;;;;;;1.10;1.00;;;9.80;99.90;;;;;;5010898;28;20269;-68
2023/01/06 08:31:55;;;;;;;0.90;0.80;;;9.80;99.90;;;;;;5011557;28;20229;-68
2023/01/06 08:34:22;;;;;;;1.20;1.00;;;9.80;99.90;;;;;;5011755;28;20198;-68
2023/01/06 08:36:49;;;;;;;1.10;1.00;;;9.90;99.90;;;;;;5015387;28;20468;-69
2023/01/06 08:39:15;;;;;;;1.25;1.08;;;9.80;99.90;;;;;;5029775;28;20861;-68
2023/01/06 08:41:43;;;;;;;1.08;0.98;;;9.80;99.90;;;;;;5030180;28;20205;-68
2023/01/06 08:44:10;;;;;;;1.17;1.08;;;9.80;99.90;;;;;;5030597;28;20209;-68
2023/01/06 08:46:37;;;;;;;1.15;1.05;;;9.90;99.90;;;;;;5030136;28;20221;-68
2023/01/06 08:49:04;;;;;;;1.40;1.20;;;9.80;99.90;;;;;;5030057;28;20216;-68
2023/01/06 08:51:31;;;;;;;1.15;0.93;;;9.80;99.90;;;;;;5030659;28;20209;-68
2023/01/06 08:53:58;;;;;;;1.25;1.15;;;9.70;99.90;;;;;;5029753;28;21205;-68
2023/01/06 08:56:26;;;;;;;1.30;1.20;;;9.70;99.90;;;;;;5030727;28;20248;-68
2023/01/06 08:58:56;;;;;;;1.40;1.30;;;9.80;99.90;;;;;;5029534;28;20207;-68
2023/01/06 09:01:26;;;;;;;1.50;1.17;;;9.70;99.90;;;;;;5030612;28;20201;-68
2023/01/06 09:03:53;;;;;;;1.80;1.33;;;9.70;99.90;;;;;;5030402;28;20198;-68
2023/01/06 09:06:21;;;;;;;1.20;1.08;;;9.70;99.90;;;;;;5029556;28;20229;-68
2023/01/06 09:08:48;;;;;;;1.13;1.02;;;9.70;99.90;;;;;;5029214;28;20610;-68
2023/01/06 09:11:16;;;;;;;1.60;1.30;;;9.70;99.90;;;;;;5030422;28;20209;-69
2023/01/06 09:13:43;;;;;;;1.10;1.00;;;9.70;99.90;;;;;;5028032;28;20197;-69
2023/01/06 09:16:13;;;;;;;1.92;1.63;;;9.70;99.90;;;;;;5030794;28;20222;-69
2023/01/06 09:18:43;;;;;;;0.80;0.80;;;9.60;99.90;;;;;;5029679;28;20210;-68
2023/01/06 09:21:10;;;;;;;1.92;1.00;;;9.60;99.90;;;;;;5030462;28;20218;-69
2023/01/06 09:23:37;;;;;;;0.93;0.82;;;9.60;99.90;;;;;;5029966;28;20297;-68
2023/01/06 09:26:04;;;;;;;2.00;0.85;;;9.60;99.90;;;;;;5029921;28;20221;-69
2023/01/06 09:28:32;;;;;;;1.20;1.10;;;9.70;99.90;;;;;;5029227;28;20197;-68
2023/01/06 09:30:58;;;;;;;1.60;0.98;;;9.70;99.90;;;;;;5029285;28;20202;-69
2023/01/06 09:33:27;;;;;;;0.90;0.73;;;9.70;99.90;;;;;;5030415;28;20585;-69
2023/01/06 09:35:53;;;;;;;1.10;0.90;;;9.80;99.90;;;;;;5029088;28;20229;-68
2023/01/06 09:38:20;;;;;;;1.20;0.80;;;9.90;99.90;;;;;;5029219;28;20206;-69
2023/01/06 09:41:02;;;;;;;0.98;0.80;;;10.00;99.90;;;;;;5029556;28;20217;-68
2023/01/06 09:43:43;;;;;;;2.55;1.08;;;10.10;99.90;;;;;;5027557;28;20210;-69
2023/01/06 09:46:14;;;;;;;1.42;1.20;;;10.30;99.90;;;;;;5028611;28;20228;-68
2023/01/06 09:48:52;;;;;;;1.05;0.95;;;10.50;99.90;;;;;;5029119;28;20213;-69
2023/01/06 09:51:23;;;;;;;2.95;0.93;;;10.80;99.90;;;;;;5030007;28;20225;-69
2023/01/06 09:53:54;;;;;;;1.10;0.82;;;11.00;99.90;;;;;;5031563;28;20277;-68
2023/01/06 09:56:24;;;;;;;1.20;0.95;;;11.20;99.90;;;;;;5032025;28;20252;-69
2023/01/06 09:58:59;;;;;;;1.10;1.00;;;11.40;99.90;;;;;;5028758;28;20560;-69
2023/01/06 10:01:32;;;;;;;0.95;0.82;;;11.60;99.90;;;;;;5029789;28;20488;-69
2023/01/06 10:04:01;;;;;;;0.80;0.70;;;12.00;99.90;;;;;;5030100;28;20241;-69
2023/01/06 10:06:36;;;;;;;1.60;0.90;;;12.80;99.90;;;;;;5027349;28;20226;-69
2023/01/06 10:09:12;;;;;;;1.00;0.90;;;15.00;99.90;;;;;;5026197;28;20197;-69
2023/01/06 10:11:49;;;;;;;1.10;0.90;;;17.60;99.90;;;;;;5029537;28;20467;-67
2023/01/06 10:14:24;;;;;;;0.90;0.80;;;18.70;99.90;;;;;;5029299;28;20456;-68
2023/01/06 10:17:09;;;;;;;1.20;0.80;;;18.60;99.90;;;;;;5029962;28;20488;-68
2023/01/06 10:19:53;;;;;;;0.90;0.80;;;18.20;99.90;;;;;;5028168;28;20495;-68
2023/01/06 10:22:29;;;;;;;1.13;0.90;;;17.70;99.90;;;;;;5032146;28;20459;-69
2023/01/06 10:25:05;;;;;;;0.80;0.70;;;17.40;99.90;;;;;;5032851;28;20497;-69
2023/01/06 10:27:36;;;;;;;0.87;0.73;;;16.80;99.90;;;;;;5032918;28;20487;-69
2023/01/06 10:30:06;;;;;;;1.27;1.03;;;16.10;99.90;;;;;;5032421;28;20604;-69
2023/01/06 10:32:35;;;;;;;1.20;0.80;;;15.40;99.90;;;;;;5032555;28;20452;-68
2023/01/06 10:35:03;;;;;;;0.80;0.60;;;14.70;99.90;;;;;;5032594;28;20491;-69
2023/01/06 10:37:38;;;;;;;0.83;0.70;;;14.10;99.90;;;;;;5033271;28;20788;-69
2023/01/06 10:40:18;;;;;;;0.90;0.80;;;13.70;99.90;;;;;;5031755;28;20483;-69
2023/01/06 10:42:58;;;;;;;0.80;0.70;;;13.60;99.90;;;;;;5032057;28;20471;-69
2023/01/06 10:45:29;;;;;;;1.15;0.88;;;14.00;99.90;;;;;;5032406;28;20555;-69
2023/01/06 10:47:57;;;;;;;0.80;0.60;;;14.20;99.90;;;;;;5031287;28;20212;-69
2023/01/06 10:50:26;;;;;;;1.50;0.90;;;14.70;99.90;;;;;;5032102;28;20931;-70
2023/01/06 10:52:53;;;;;;;0.90;0.77;;;16.40;99.90;;;;;;5032483;28;20458;-70
2023/01/06 10:55:37;;;;;;;2.80;0.70;;;17.70;99.90;;;;;;5032826;28;20460;-69
2023/01/06 10:58:13;;;;;;;0.90;0.80;;;18.10;99.90;;;;;;5012462;28;20829;-70
2023/01/06 11:00:54;;;;;;;0.90;0.80;;;17.30;99.90;;;;;;5012509;28;20491;-69
2023/01/06 11:03:21;;;;;;;0.80;0.70;;;16.40;99.90;;;;;;5012713;28;20461;-70
2023/01/06 11:06:00;;;;;;;1.87;0.90;;;15.70;99.90;;;;;;5012375;28;20848;-70
2023/01/06 11:08:27;;;;;;;1.37;1.00;;;14.90;99.90;;;;;;5012012;28;20531;-70
2023/01/06 11:10:56;;;;;;;0.90;0.80;;;14.30;99.90;;;;;;5012078;28;20885;-69
2023/01/06 11:13:26;;;;;;;0.80;0.70;;;14.00;99.90;;;;;;5012320;28;20465;-69
2023/01/06 11:15:54;;;;;;;1.00;0.80;;;13.40;99.90;;;;;;5011705;28;20488;-69
2023/01/06 11:18:24;;;;;;;1.13;0.90;;;12.80;99.90;;;;;;5012147;28;20663;-70
2023/01/06 11:21:08;;;;;;;1.00;0.70;;;12.50;99.90;;;;;;5011391;28;20229;-69
2023/01/06 11:23:36;;;;;;;0.90;0.70;;;12.40;99.90;;;;;;5012079;28;20202;-70
2023/01/06 11:26:14;;;;;;;1.90;0.98;;;12.50;99.90;;;;;;5012364;28;20717;-70
2023/01/06 11:28:42;;;;;;;0.80;0.60;;;12.60;99.90;;;;;;5011686;28;20206;-71
2023/01/06 11:31:15;;;;;;;0.80;0.70;;;12.90;99.90;;;;;;5011447;28;20198;-70
2023/01/06 11:33:48;;;;;;;1.00;0.70;;;13.20;99.90;;;;;;5011727;28;20209;-71
2023/01/06 11:36:17;;;;;;;1.25;0.70;;;13.20;99.90;;;;;;5011007;28;20226;-70
2023/01/06 11:38:46;;;;;;;0.90;0.80;;;13.00;99.90;;;;;;5011362;28;20199;-70
2023/01/06 11:41:23;;;;;;;0.80;0.70;;;12.80;99.90;;;;;;5012218;28;20572;-70
2023/01/06 11:43:50;;;;;;;0.90;0.80;;;12.60;99.90;;;;;;5011980;28;20225;-70
2023/01/06 11:46:22;;;;;;;0.88;0.73;;;12.50;99.90;;;;;;5030454;28;20234;-70
2023/01/06 11:48:54;;;;;;;0.80;0.70;;;12.40;99.90;;;;;;5028856;28;20190;-69
2023/01/06 11:51:45;;;;;;;1.25;1.10;;;12.20;99.90;;;;;;5030649;28;20201;-70
2023/01/06 11:54:24;;;;;;;1.10;0.70;;;12.10;99.90;;;;;;5030463;28;20212;-70
2023/01/06 11:57:16;;;;;;;0.85;0.70;;;11.90;99.90;;;;;;5029898;28;20303;-70
2023/01/06 11:59:56;;;;;;;0.80;0.70;;;11.60;99.90;;;;;;5029386;28;20206;-69
2023/01/06 12:02:28;;;;;;;0.80;0.70;;;11.40;99.90;;;;;;5031317;28;20212;-69
2023/01/06 12:04:57;;;;;;;1.80;0.75;;;11.40;99.90;;;;;;5030279;28;20201;-69
2023/01/06 12:07:33;;;;;;;0.95;0.85;;;11.50;99.90;;;;;;5030194;28;20316;-70
2023/01/06 12:10:04;;;;;;;0.80;0.70;;;11.70;99.90;;;;;;5029828;28;20303;-70
2023/01/06 12:12:31;;;;;;;0.80;0.70;;;11.80;99.90;;;;;;5029869;28;20198;-69
2023/01/06 12:14:58;;;;;;;0.85;0.73;;;11.80;99.90;;;;;;5028764;28;20202;-70
2023/01/06 12:17:37;;;;;;;0.80;0.70;;;11.90;99.90;;;;;;5029176;28;20241;-69
2023/01/06 12:20:11;;;;;;;0.90;0.70;;;12.10;99.90;;;;;;5027819;28;20267;-70
2023/01/06 12:22:44;;;;;;;1.58;1.10;;;12.20;99.90;;;;;;5030768;28;20542;-69
2023/01/06 12:25:17;;;;;;;1.05;0.95;;;12.10;99.90;;;;;;5030730;28;20213;-69
2023/01/06 12:27:47;;;;;;;2.00;1.77;;;12.00;99.90;;;;;;5030245;28;20224;-69
2023/01/06 12:30:21;;;;;;;2.85;2.05;;;11.80;99.90;;;;;;5030191;28;20190;-69
2023/01/06 12:32:51;;;;;;;1.70;1.60;;;11.80;99.90;;;;;;5029978;28;20247;-69
2023/01/06 12:35:24;;;;;;;2.08;1.90;;;11.80;99.90;;;;;;5030465;28;20263;-69
2023/01/06 12:37:56;;;;;;;1.88;1.60;;;11.60;99.90;;;;;;5028648;28;20317;-69
2023/01/06 12:40:30;;;;;;;1.58;1.48;;;11.40;99.90;;;;;;5029313;28;20714;-69
2023/01/06 12:43:04;;;;;;;1.63;1.48;;;11.40;99.90;;;;;;5028693;28;20696;-69
2023/01/06 12:45:39;;;;;;;1.92;1.33;;;11.20;99.90;;;;;;5028885;28;20251;-69
2023/01/06 12:48:17;;;;;;;1.10;1.00;;;11.20;99.90;;;;;;5029680;28;20696;-69
2023/01/06 12:50:51;;;;;;;1.25;1.13;;;11.00;99.90;;;;;;5029507;28;20695;-69
2023/01/06 12:53:23;;;;;;;1.02;0.85;;;11.00;99.90;;;;;;5029972;28;20217;-69
2023/01/06 12:56:02;;;;;;;1.95;1.23;;;10.90;99.90;;;;;;5028013;28;20248;-70
2023/01/06 12:58:38;;;;;;;1.40;1.30;;;10.90;99.90;;;;;;5029319;28;20673;-70
2023/01/06 13:01:10;;;;;;;1.30;0.93;;;10.90;99.90;;;;;;5029830;28;20225;-69
2023/01/06 13:04:01;;;;;;;1.10;1.00;;;10.90;99.90;;;;;;5029227;28;20584;-69
2023/01/06 13:06:57;;;;;;;1.20;0.90;;;10.90;99.90;;;;;;5029105;28;20265;-69
2023/01/06 13:09:41;;;;;;;3.42;0.85;;;10.80;99.90;;;;;;5028989;28;20201;-69
2023/01/06 13:12:29;;;;;;;1.10;1.00;;;10.90;99.90;;;;;;5029185;28;20368;-69
2023/01/06 13:15:03;;;;;;;0.93;0.70;;;10.90;99.90;;;;;;5029596;28;20244;-69